Time;durP1;ratioP1;P1;durP2;ratioP2;P2;SDS_P1;SDS_P2;PMS_P1;PMS_P2;Temp;Humidity;BMP_temperature;BMP_pressure;BME280_temperature;BME280_humidity;BME280_pressure;Samples;Min_cycle;Max_cycle;Signal;HPM_P1;HPM_P2
2022/07/29 00:00:44;;;;;;;1.85;0.50;;;;;;;16.86;47.52;101195.34;4889946;29;20804;-85
2022/07/29 00:03:12;;;;;;;3.13;0.73;;;;;;;16.86;47.43;101190.06;4896405;29;20040;-81
2022/07/29 00:05:41;;;;;;;7.00;0.65;;;;;;;16.92;47.39;101193.47;4893293;29;20036;-81
2022/07/29 00:08:11;;;;;;;1.30;0.38;;;;;;;16.90;47.57;101182.94;4899896;29;20040;-88
2022/07/29 00:10:40;;;;;;;1.52;0.60;;;;;;;16.89;47.41;101177.69;4913579;29;20518;-84
2022/07/29 00:13:06;;;;;;;2.70;0.60;;;;;;;16.90;47.49;101174.13;4897417;29;20426;-85
2022/07/29 00:15:33;;;;;;;1.48;0.60;;;;;;;16.90;47.56;101175.00;4893334;29;20464;-83
2022/07/29 00:18:00;;;;;;;1.10;0.60;;;;;;;16.91;47.53;101170.59;4893305;29;20044;-82
2022/07/29 00:20:27;;;;;;;0.93;0.73;;;;;;;16.90;47.69;101169.72;4874382;29;20098;-83
2022/07/29 00:22:53;;;;;;;1.73;0.60;;;;;;;16.90;47.58;101172.38;4874424;29;20067;-82
2022/07/29 00:25:20;;;;;;;1.05;0.95;;;;;;;16.89;47.66;101169.75;4890099;29;20203;-82
2022/07/29 00:27:46;;;;;;;2.95;0.70;;;;;;;16.87;47.83;101167.16;4885716;29;20127;-86
2022/07/29 00:30:13;;;;;;;2.05;0.80;;;;;;;16.84;47.83;101164.56;4891475;29;20048;-86
2022/07/29 00:32:40;;;;;;;2.55;0.65;;;;;;;16.80;48.28;101154.97;4889913;29;20127;-83
2022/07/29 00:37:48;;;;;;;2.60;0.95;;;;;;;16.80;48.31;101161.13;4884595;29;20049;-83
2022/07/29 00:40:15;;;;;;;0.75;0.47;;;;;;;16.79;48.33;101155.88;4876093;29;20080;-84
2022/07/29 00:42:50;;;;;;;2.78;0.82;;;;;;;16.75;48.38;101155.13;4890320;29;20076;-82
2022/07/29 00:45:18;;;;;;;2.65;0.47;;;;;;;16.73;48.41;101154.28;4888721;29;20048;-82
2022/07/29 00:47:45;;;;;;;4.50;0.70;;;;;;;16.73;48.55;101148.16;4890540;29;20064;-83
2022/07/29 00:50:14;;;;;;;2.33;0.50;;;;;;;16.72;48.54;101149.03;4889957;29;20056;-83
2022/07/29 00:52:44;;;;;;;2.72;0.70;;;;;;;16.72;48.95;101144.63;4886417;29;20144;-83
2022/07/29 00:55:15;;;;;;;2.53;0.88;;;;;;;16.70;48.72;101138.50;4890673;29;20048;-83
2022/07/29 00:57:46;;;;;;;1.15;0.98;;;;;;;16.69;48.83;101144.72;4890343;29;20052;-81
2022/07/29 01:00:20;;;;;;;2.55;1.00;;;;;;;16.65;48.71;101138.63;4889583;29;20056;-82
2022/07/29 01:02:49;;;;;;;1.75;0.70;;;;;;;16.66;48.99;101142.13;4888008;29;20540;-84
2022/07/29 01:05:19;;;;;;;3.05;0.80;;;;;;;16.63;49.09;101144.84;4889498;29;20055;-83
2022/07/29 01:07:52;;;;;;;1.20;0.50;;;;;;;16.57;49.11;101131.78;4875102;29;20130;-83
2022/07/29 01:10:20;;;;;;;;;;;;;;;16.57;49.52;101126.50;4875144;29;20112;-82
2022/07/29 01:12:50;;;;;;;0.75;0.30;;;;;;;16.53;49.01;101131.88;4874462;29;20361;-84
2022/07/29 01:15:17;;;;;;;2.47;0.57;;;;;;;16.52;49.40;101132.78;4874255;29;20113;-83
2022/07/29 01:17:55;;;;;;;3.17;0.55;;;;;;;16.50;49.66;101129.34;4891179;29;20046;-83
2022/07/29 01:20:32;;;;;;;4.32;1.02;;;;;;;16.44;49.78;101120.69;4891194;29;20056;-85
2022/07/29 01:23:27;;;;;;;3.03;0.75;;;;;;;16.38;49.75;101125.22;4893012;29;20507;-83
2022/07/29 01:26:29;;;;;;;1.38;0.80;;;;;;;16.32;50.20;101120.09;4892524;29;20037;-83
2022/07/29 01:29:21;;;;;;;3.42;0.75;;;;;;;16.24;50.59;101114.13;4869111;29;20515;-83
2022/07/29 01:31:59;;;;;;;4.00;0.80;;;;;;;16.17;50.56;101110.78;4889537;29;20434;-85
2022/07/29 01:35:10;;;;;;;2.63;0.70;;;;;;;16.13;50.62;101106.47;4891744;29;20053;-82
2022/07/29 01:38:11;;;;;;;1.23;0.55;;;;;;;16.05;51.16;101108.47;4891279;29;20056;-80
2022/07/29 01:40:53;;;;;;;3.63;0.82;;;;;;;15.98;51.22;101107.75;4878332;29;20048;-84
2022/07/29 01:43:34;;;;;;;2.63;0.90;;;;;;;15.90;51.60;101100.91;4874112;29;20522;-86
2022/07/29 01:46:11;;;;;;;0.75;0.55;;;;;;;15.84;51.55;101107.22;4874994;29;20033;-82
2022/07/29 01:48:48;;;;;;;3.00;0.60;;;;;;;15.77;51.91;101095.00;4904176;29;20480;-82
2022/07/29 01:51:50;;;;;;;4.50;0.70;;;;;;;15.72;52.29;101100.38;4895047;29;20049;-82
2022/07/29 01:54:45;;;;;;;3.15;0.80;;;;;;;15.65;52.09;101104.94;4888920;29;20151;-83
2022/07/29 01:57:17;;;;;;;0.85;0.70;;;;;;;15.58;52.26;101106.00;4890621;29;20104;-83
2022/07/29 01:59:46;;;;;;;1.20;0.80;;;;;;;15.53;52.68;101100.81;4887327;29;20045;-82
2022/07/29 02:02:16;;;;;;;0.98;0.60;;;;;;;15.50;52.66;101102.63;4892131;29;20056;-85
2022/07/29 02:04:48;;;;;;;6.45;2.05;;;;;;;15.46;52.87;101099.22;4885813;29;20064;-89
2022/07/29 02:07:19;;;;;;;2.95;0.57;;;;;;;15.44;53.06;101100.16;4905965;29;20143;-87
2022/07/29 02:09:48;;;;;;;0.90;0.65;;;;;;;15.42;53.41;101094.88;4883580;29;20056;-83
2022/07/29 02:12:23;;;;;;;3.08;1.20;;;;;;;15.41;53.41;101095.81;4881340;29;20108;-85
2022/07/29 02:14:53;;;;;;;1.80;1.25;;;;;;;15.38;53.24;101091.47;4898141;29;20073;-84
2022/07/29 02:17:30;;;;;;;6.18;1.70;;;;;;;15.37;53.50;101084.47;4895435;29;20040;-86
2022/07/29 02:20:01;;;;;;;4.45;0.65;;;;;;;15.34;53.32;101081.00;4889308;29;20109;-84
2022/07/29 02:22:34;;;;;;;5.72;0.98;;;;;;;15.31;53.42;101078.47;4896768;29;20044;-82
2022/07/29 02:25:02;;;;;;;1.77;0.65;;;;;;;15.28;53.40;101081.13;4896988;29;20820;-81
2022/07/29 02:27:32;;;;;;;1.88;0.82;;;;;;;15.24;53.82;101087.38;4893029;29;20044;-82
2022/07/29 02:30:01;;;;;;;1.40;0.50;;;;;;;15.19;54.20;101083.09;4893162;29;20069;-82
2022/07/29 02:32:30;;;;;;;0.95;0.75;;;;;;;15.20;53.89;101081.31;4878332;29;20045;-84
2022/07/29 02:34:59;;;;;;;1.10;0.77;;;;;;;15.18;54.04;101076.06;4892348;29;20047;-82
2022/07/29 02:37:27;;;;;;;2.10;0.80;;;;;;;15.17;54.23;101076.97;4879974;29;20044;-82
2022/07/29 02:39:56;;;;;;;3.50;1.05;;;;;;;15.18;54.31;101073.44;4901344;29;20570;-83
2022/07/29 02:42:28;;;;;;;3.65;0.95;;;;;;;15.21;54.26;101078.66;4891211;29;20053;-82
2022/07/29 02:44:55;;;;;;;5.63;0.75;;;;;;;15.25;54.24;101073.31;4900466;29;20581;-85
2022/07/29 02:47:43;;;;;;;1.65;0.77;;;;;;;15.25;54.35;101074.16;4881943;29;20330;-83
2022/07/29 02:50:22;;;;;;;2.17;0.50;;;;;;;15.29;54.08;101072.34;4880044;29;20401;-85
2022/07/29 02:52:58;;;;;;;1.55;0.70;;;;;;;15.30;53.89;101071.44;4894357;29;20365;-83
2022/07/29 02:55:39;;;;;;;1.83;0.52;;;;;;;15.32;54.16;101074.94;4892283;29;20052;-82
2022/07/29 02:58:28;;;;;;;2.08;0.70;;;;;;;15.31;54.06;101067.91;4887307;29;20052;-83
2022/07/29 03:01:01;;;;;;;2.75;0.82;;;;;;;15.30;54.13;101064.38;4879779;29;20053;-83
2022/07/29 03:03:37;;;;;;;1.48;0.90;;;;;;;15.31;54.38;101060.84;4893102;29;20041;-85
2022/07/29 03:06:05;;;;;;;3.28;0.82;;;;;;;15.31;54.18;101060.00;4867899;29;20127;-83
2022/07/29 03:08:33;;;;;;;1.55;0.70;;;;;;;15.32;54.24;101059.09;4880180;29;20128;-83
2022/07/29 03:11:02;;;;;;;2.88;1.35;;;;;;;15.34;54.12;101058.16;4881688;29;20377;-83
2022/07/29 03:13:32;;;;;;;3.15;0.80;;;;;;;15.33;54.49;101055.53;4888615;29;20423;-83
2022/07/29 03:16:00;;;;;;;1.42;0.57;;;;;;;15.32;54.21;101054.69;4876443;29;20048;-84
2022/07/29 03:18:42;;;;;;;2.03;0.88;;;;;;;15.33;54.44;101064.34;4877499;29;20128;-83
2022/07/29 03:21:09;;;;;;;2.47;1.00;;;;;;;15.33;54.11;101058.16;4873270;29;20082;-85
2022/07/29 03:23:36;;;;;;;5.45;1.33;;;;;;;15.32;54.45;101064.38;4890915;29;20432;-85
2022/07/29 03:26:03;;;;;;;5.35;1.02;;;;;;;15.29;54.40;101052.13;4891887;29;20049;-83
2022/07/29 03:28:33;;;;;;;4.28;1.02;;;;;;;15.28;54.37;101052.13;4893024;29;20055;-85
2022/07/29 03:31:00;;;;;;;4.35;1.10;;;;;;;15.27;54.38;101053.06;4893408;29;20051;-82
2022/07/29 03:33:28;;;;;;;7.15;1.05;;;;;;;15.28;54.47;101057.41;4878394;29;20041;-82
2022/07/29 03:35:55;;;;;;;2.70;0.70;;;;;;;15.29;54.49;101054.75;4890837;29;20049;-83
2022/07/29 03:38:26;;;;;;;3.00;1.35;;;;;;;15.30;54.47;101059.09;4893446;29;20079;-84
2022/07/29 03:41:03;;;;;;;3.20;0.98;;;;;;;15.29;54.75;101052.13;4882755;29;20052;-85
2022/07/29 03:43:33;;;;;;;3.25;1.58;;;;;;;15.29;54.73;101057.41;4909418;29;20120;-83
2022/07/29 03:46:01;;;;;;;2.95;0.60;;;;;;;15.29;54.78;101051.22;4893651;29;20055;-82
2022/07/29 03:48:32;;;;;;;3.38;0.93;;;;;;;15.25;54.68;101057.47;4880422;29;20044;-83
2022/07/29 03:51:02;;;;;;;2.83;0.80;;;;;;;15.20;55.17;101050.53;4908207;29;20051;-85
2022/07/29 03:53:30;;;;;;;2.67;1.25;;;;;;;15.19;55.21;101051.44;4906349;29;20061;-87
2022/07/29 03:56:01;;;;;;;3.70;1.20;;;;;;;15.17;55.14;101055.88;4889584;29;20052;-83
2022/07/29 03:58:28;;;;;;;4.18;1.25;;;;;;;15.18;55.17;101062.03;4910836;29;20101;-91
2022/07/29 04:00:59;;;;;;;5.05;1.10;;;;;;;15.17;55.31;101055.00;4900467;29;20043;-82
2022/07/29 04:03:26;;;;;;;2.10;0.95;;;;;;;15.18;55.35;101062.88;4896196;29;20037;-84
2022/07/29 04:06:07;;;;;;;4.13;1.27;;;;;;;15.19;55.69;101064.63;4878666;29;20100;-82
2022/07/29 04:08:35;;;;;;;1.42;0.80;;;;;;;15.19;55.73;101056.72;4889352;29;20040;-82
2022/07/29 04:11:03;;;;;;;4.50;1.17;;;;;;;15.21;55.85;101062.84;4878815;29;20055;-83
2022/07/29 04:13:32;;;;;;;3.13;1.00;;;;;;;15.20;55.57;101060.19;4894937;29;20177;-81
2022/07/29 04:15:59;;;;;;;2.60;1.00;;;;;;;15.18;55.92;101056.75;4893818;29;20052;-83
2022/07/29 04:18:26;;;;;;;5.50;1.17;;;;;;;15.15;55.98;101062.09;4892946;29;20505;-80
2022/07/29 04:20:52;;;;;;;2.60;1.13;;;;;;;15.14;55.93;101063.84;4895584;29;20562;-80
2022/07/29 04:23:19;;;;;;;2.17;1.00;;;;;;;15.13;56.33;101064.75;4893912;29;20044;-82
2022/07/29 04:25:46;;;;;;;1.70;1.17;;;;;;;15.13;56.42;101070.03;4875773;29;20045;-83
2022/07/29 04:28:13;;;;;;;3.03;1.00;;;;;;;15.11;56.45;101061.28;4872778;29;20428;-85
2022/07/29 04:30:43;;;;;;;4.18;1.77;;;;;;;15.11;56.53;101063.94;4898702;29;20112;-83
2022/07/29 04:33:10;;;;;;;3.25;1.42;;;;;;;15.10;56.43;101061.34;4888036;29;20513;-84
2022/07/29 04:35:46;;;;;;;3.28;1.48;;;;;;;15.11;56.82;101070.94;4898149;29;20108;-88
2022/07/29 04:38:13;;;;;;;5.03;1.90;;;;;;;15.10;56.71;101070.09;4895899;29;20496;-82
2022/07/29 04:40:45;;;;;;;5.78;2.58;;;;;;;15.12;56.57;101072.69;4883128;29;20109;-83
2022/07/29 04:43:16;;;;;;;6.07;1.35;;;;;;;15.11;56.72;101077.13;4901986;29;20485;-84
2022/07/29 04:45:42;;;;;;;3.75;1.90;;;;;;;15.10;57.16;101075.38;4898947;29;20488;-82
2022/07/29 04:48:09;;;;;;;7.55;1.48;;;;;;;15.11;56.92;101079.75;4896969;29;20076;-83
2022/07/29 04:50:42;;;;;;;3.17;1.15;;;;;;;15.11;56.89;101074.47;4867580;29;20055;-85
2022/07/29 04:53:13;;;;;;;3.57;1.50;;;;;;;15.11;57.04;101074.47;4874831;29;20464;-82
2022/07/29 04:55:40;;;;;;;2.95;1.45;;;;;;;15.12;56.96;101070.94;4875338;29;20307;-85
2022/07/29 04:58:07;;;;;;;5.47;1.48;;;;;;;15.15;57.00;101068.22;4897277;29;20063;-82
2022/07/29 05:00:35;;;;;;;4.15;1.40;;;;;;;15.15;57.15;101065.59;4902651;29;20563;-82
2022/07/29 05:03:05;;;;;;;1.42;1.20;;;;;;;15.21;57.09;101065.47;4896668;29;20388;-86
2022/07/29 05:05:31;;;;;;;4.35;1.58;;;;;;;15.25;57.03;101063.63;4892228;29;20041;-82
2022/07/29 05:07:58;;;;;;;7.63;1.58;;;;;;;15.32;57.02;101067.88;4893040;29;20500;-83
2022/07/29 05:10:26;;;;;;;8.73;1.70;;;;;;;15.35;56.96;101065.16;4891781;29;20488;-83
2022/07/29 05:12:53;;;;;;;3.58;1.17;;;;;;;15.38;56.79;101069.50;4879631;29;20045;-83
2022/07/29 05:15:20;;;;;;;3.13;1.00;;;;;;;15.41;56.84;101072.06;4881798;29;20049;-83
2022/07/29 05:17:47;;;;;;;11.55;2.25;;;;;;;15.47;56.84;101074.56;4871977;29;20061;-84
2022/07/29 05:20:14;;;;;;;6.15;1.98;;;;;;;15.59;56.46;101075.19;4879312;29;20067;-83
2022/07/29 05:22:41;;;;;;;4.68;1.58;;;;;;;15.67;56.08;101078.50;4895318;29;20400;-83
2022/07/29 05:25:09;;;;;;;6.68;1.48;;;;;;;15.70;56.07;101086.38;4882878;29;20069;-84
2022/07/29 05:27:37;;;;;;;3.55;1.27;;;;;;;15.78;55.97;101076.50;4888007;29;20041;-84
2022/07/29 05:30:08;;;;;;;8.20;1.80;;;;;;;15.85;55.63;101070.22;4887755;29;20037;-83
2022/07/29 05:32:37;;;;;;;7.65;1.88;;;;;;;15.88;55.73;101064.84;4876484;29;20049;-83
2022/07/29 05:35:04;;;;;;;4.88;2.10;;;;;;;15.93;55.74;101059.47;4892142;29;20071;-87
2022/07/29 05:37:34;;;;;;;13.55;2.50;;;;;;;15.97;55.60;101062.88;4873243;29;20116;-83
2022/07/29 05:40:06;;;;;;;4.75;1.85;;;;;;;16.02;55.55;101060.97;4874595;29;20044;-82
2022/07/29 05:42:33;;;;;;;6.18;1.85;;;;;;;16.11;55.46;101062.53;4874872;29;20128;-82
2022/07/29 05:45:04;;;;;;;10.35;1.98;;;;;;;16.15;55.23;101067.72;4900608;29;20044;-84
2022/07/29 05:47:31;;;;;;;5.18;1.75;;;;;;;16.18;55.09;101070.25;4896739;29;20056;-83
2022/07/29 05:49:58;;;;;;;8.60;1.73;;;;;;;16.18;55.16;101069.41;4903708;29;20068;-82
2022/07/29 05:52:26;;;;;;;7.45;1.90;;;;;;;16.14;55.24;101063.31;4903837;29;20124;-82
2022/07/29 05:54:56;;;;;;;10.20;2.47;;;;;;;16.09;55.56;101074.88;4896648;29;20083;-83
2022/07/29 05:57:25;;;;;;;7.72;2.15;;;;;;;16.03;55.80;101068.00;4912634;29;20044;-83
2022/07/29 05:59:53;;;;;;;12.02;3.28;;;;;;;16.03;55.83;101065.34;4933905;29;20069;-84
2022/07/29 06:02:20;;;;;;;12.05;1.52;;;;;;;16.01;55.87;101070.69;4889098;29;20283;-83
2022/07/29 06:05:01;;;;;;;4.20;1.65;;;;;;;16.01;56.09;101067.19;4904178;29;20500;-83
2022/07/29 06:07:28;;;;;;;13.13;2.55;;;;;;;16.06;55.99;101057.38;4885333;29;20057;-82
2022/07/29 06:09:56;;;;;;;8.57;2.92;;;;;;;16.15;55.92;101064.19;4900219;29;20487;-88
2022/07/29 06:12:23;;;;;;;5.43;2.20;;;;;;;16.22;55.62;101057.84;4899985;29;20105;-83
2022/07/29 06:14:50;;;;;;;3.03;1.63;;;;;;;16.32;55.38;101061.97;4885421;29;20433;-83
2022/07/29 06:17:17;;;;;;;3.17;1.40;;;;;;;16.48;55.09;101067.72;4883165;29;20048;-84
2022/07/29 06:19:44;;;;;;;4.22;1.88;;;;;;;16.65;54.62;101058.47;4892547;29;20107;-83
2022/07/29 06:22:11;;;;;;;10.48;2.28;;;;;;;16.80;54.42;101054.50;4899168;29;20283;-82
2022/07/29 06:24:43;;;;;;;9.27;2.65;;;;;;;16.98;54.05;101051.38;4897207;29;20060;-82
2022/07/29 06:27:11;;;;;;;10.63;2.67;;;;;;;17.17;53.38;101040.25;4897327;29;20068;-82
2022/07/29 06:29:39;;;;;;;11.40;2.70;;;;;;;17.40;52.99;101044.81;4896080;29;20461;-83
2022/07/29 06:32:13;;;;;;;6.72;2.15;;;;;;;17.55;52.69;101038.19;4908116;29;20488;-84
2022/07/29 06:34:40;;;;;;;3.05;1.77;;;;;;;17.67;52.46;101052.81;4890676;29;20057;-84
2022/07/29 06:37:11;;;;;;;7.82;3.10;;;;;;;17.72;52.03;101047.34;4881640;29;20052;-82
2022/07/29 06:39:40;;;;;;;1.88;1.40;;;;;;;17.81;52.15;101052.38;4900435;29;20377;-85
2022/07/29 06:42:07;;;;;;;7.03;2.55;;;;;;;17.95;51.69;101046.63;4894797;29;20602;-83
2022/07/29 06:44:34;;;;;;;6.82;2.55;;;;;;;17.97;51.35;101044.81;4882536;29;20048;-84
2022/07/29 06:47:02;;;;;;;7.95;3.10;;;;;;;18.06;51.45;101051.59;4897004;29;20044;-86
2022/07/29 06:49:33;;;;;;;3.53;2.42;;;;;;;18.15;51.27;101041.53;4893723;29;20076;-82
2022/07/29 06:54:47;;;;;;;3.55;1.48;;;;;;;18.31;50.95;101041.00;4888945;29;20068;-84
2022/07/29 06:57:15;;;;;;;5.38;1.92;;;;;;;18.32;50.43;101035.63;4894800;29;20604;-82
2022/07/29 06:59:41;;;;;;;3.70;1.40;;;;;;;18.43;50.30;101034.41;4881742;29;20052;-83
2022/07/29 07:02:08;;;;;;;9.05;2.10;;;;;;;18.54;50.17;101037.53;4881832;29;20040;-83
2022/07/29 07:04:35;;;;;;;6.30;2.03;;;;;;;18.69;49.68;101049.34;4892175;29;20072;-83
2022/07/29 07:07:01;;;;;;;5.60;2.20;;;;;;;18.72;49.60;101048.38;4891583;29;20045;-85
2022/07/29 07:09:29;;;;;;;4.82;1.67;;;;;;;18.83;49.43;101048.84;4891142;29;20048;-83
2022/07/29 07:12:12;;;;;;;5.10;1.85;;;;;;;19.00;49.13;101054.41;4888245;29;20097;-81
2022/07/29 07:14:40;;;;;;;4.80;1.77;;;;;;;19.18;48.70;101050.19;4912991;29;20048;-83
2022/07/29 07:17:08;;;;;;;2.65;1.73;;;;;;;19.39;48.50;101052.09;4891060;29;20049;-86
2022/07/29 07:19:34;;;;;;;4.65;1.52;;;;;;;19.66;47.79;101061.59;4894552;29;20059;-84
2022/07/29 07:22:01;;;;;;;5.03;1.42;;;;;;;19.65;47.43;101056.34;4871674;29;20045;-84
2022/07/29 07:24:29;;;;;;;3.63;1.85;;;;;;;19.87;47.09;101048.41;4891788;29;20037;-83
2022/07/29 07:26:59;;;;;;;1.83;1.17;;;;;;;20.11;46.27;101048.28;4894112;29;20050;-87
2022/07/29 07:29:26;;;;;;;2.97;1.83;;;;;;;20.24;46.39;101043.31;4895117;29;20053;-84
2022/07/29 07:31:52;;;;;;;4.65;1.80;;;;;;;20.33;45.74;101043.75;4886780;29;20044;-83
2022/07/29 07:34:19;;;;;;;1.98;1.30;;;;;;;20.30;45.76;101041.25;4891569;29;20507;-83
2022/07/29 07:36:46;;;;;;;5.15;1.83;;;;;;;20.31;45.43;101039.44;4892083;29;20048;-87
2022/07/29 07:39:12;;;;;;;3.53;1.20;;;;;;;20.24;45.92;101041.50;4897423;29;20143;-85
2022/07/29 07:41:39;;;;;;;2.83;1.60;;;;;;;20.20;45.99;101041.72;4892783;29;20048;-84
2022/07/29 07:44:15;;;;;;;3.35;1.25;;;;;;;20.18;46.03;101041.78;4919925;29;20528;-83
2022/07/29 07:46:42;;;;;;;5.60;1.88;;;;;;;20.05;46.12;101044.09;4909270;29;20067;-87
2022/07/29 07:49:09;;;;;;;3.97;1.55;;;;;;;19.82;46.28;101048.56;4894675;29;20048;-83
2022/07/29 07:51:35;;;;;;;3.22;1.85;;;;;;;19.68;46.81;101050.91;4908929;29;20056;-83
2022/07/29 07:54:02;;;;;;;4.82;2.15;;;;;;;19.58;47.04;101050.44;4897959;29;20082;-83
2022/07/29 07:56:29;;;;;;;9.75;2.67;;;;;;;19.58;47.01;101061.06;4887510;29;20575;-84
2022/07/29 07:58:56;;;;;;;8.18;2.33;;;;;;;19.61;46.97;101055.59;4876715;29;20045;-84
2022/07/29 08:01:22;;;;;;;5.15;1.75;;;;;;;19.63;47.10;101050.22;4908677;29;20040;-83
2022/07/29 08:03:52;;;;;;;4.93;2.20;;;;;;;19.63;46.96;101051.09;4891662;29;20055;-85
2022/07/29 08:06:18;;;;;;;5.10;1.58;;;;;;;19.55;47.37;101055.00;4909899;29;20052;-82
2022/07/29 08:08:47;;;;;;;4.55;1.67;;;;;;;19.46;47.35;101054.44;4875183;29;20041;-83
2022/07/29 08:11:15;;;;;;;3.83;1.88;;;;;;;19.45;47.45;101049.16;4893340;29;20077;-83
2022/07/29 08:13:41;;;;;;;5.00;2.22;;;;;;;19.46;47.25;101048.25;4890923;29;20055;-88
2022/07/29 08:16:14;;;;;;;7.15;2.22;;;;;;;19.51;47.41;101052.44;4896129;29;20041;-84
2022/07/29 08:18:43;;;;;;;6.70;2.55;;;;;;;19.50;47.40;101047.19;4879737;29;20041;-83
2022/07/29 08:21:13;;;;;;;12.65;2.90;;;;;;;19.44;47.64;101043.00;4905279;29;20512;-84
2022/07/29 08:23:45;;;;;;;9.75;3.17;;;;;;;19.42;47.73;101039.53;4879205;29;20074;-84
2022/07/29 08:26:13;;;;;;;11.68;2.72;;;;;;;19.42;47.50;101044.00;4880448;29;20053;-85
2022/07/29 08:28:45;;;;;;;15.02;3.10;;;;;;;19.48;47.69;101049.91;4896041;29;20036;-82
2022/07/29 08:31:15;;;;;;;8.98;2.45;;;;;;;19.52;47.44;101048.00;4890458;29;20251;-84
2022/07/29 08:33:43;;;;;;;3.85;1.80;;;;;;;19.53;47.45;101052.41;4888990;29;20041;-85
2022/07/29 08:36:10;;;;;;;6.78;2.83;;;;;;;19.50;47.43;101050.72;4899606;29;20085;-83
2022/07/29 08:38:37;;;;;;;7.90;2.75;;;;;;;19.50;47.23;101048.09;4888223;29;20045;-84
2022/07/29 08:41:04;;;;;;;5.07;2.60;;;;;;;19.51;47.21;101043.63;4890975;29;20056;-82
2022/07/29 08:43:30;;;;;;;8.27;2.38;;;;;;;19.58;47.29;101045.13;4890086;29;20041;-83
2022/07/29 08:45:57;;;;;;;4.55;1.90;;;;;;;19.64;46.98;101036.88;4882502;29;20048;-84
2022/07/29 08:48:28;;;;;;;4.68;2.08;;;;;;;19.72;47.16;101055.16;4875293;29;20468;-84
2022/07/29 08:51:00;;;;;;;7.93;2.88;;;;;;;19.76;47.12;101054.09;4903994;29;20507;-83
2022/07/29 08:53:33;;;;;;;6.03;2.15;;;;;;;19.91;47.03;101054.47;4894105;29;20089;-85
2022/07/29 08:56:01;;;;;;;5.38;2.20;;;;;;;20.11;46.61;101056.25;4889717;29;20061;-86
2022/07/29 08:58:34;;;;;;;9.13;2.45;;;;;;;20.29;46.25;101058.13;4894296;29;20040;-83
2022/07/29 09:01:03;;;;;;;4.25;2.00;;;;;;;20.40;46.02;101052.34;4877823;29;20040;-83
2022/07/29 09:03:35;;;;;;;8.95;2.35;;;;;;;20.38;45.45;101059.53;4891006;29;20554;-84
2022/07/29 09:06:03;;;;;;;6.80;2.08;;;;;;;20.42;45.59;101054.94;4891215;29;20044;-87
2022/07/29 09:08:32;;;;;;;3.65;2.08;;;;;;;20.44;45.54;101051.28;4883625;29;20049;-86
2022/07/29 09:11:00;;;;;;;6.28;2.08;;;;;;;20.47;45.93;101056.47;4885605;29;20048;-84
2022/07/29 09:13:28;;;;;;;2.50;2.30;;;;;;;20.56;45.74;101046.34;4891494;29;20052;-84
2022/07/29 09:15:54;;;;;;;5.65;2.20;;;;;;;20.62;45.52;101038.09;4884711;29;20052;-82
2022/07/29 09:18:44;;;;;;;5.05;2.15;;;;;;;20.75;45.14;101033.97;4868206;29;20120;-85
2022/07/29 09:24:13;;;;;;;5.30;1.95;;;;;;;21.28;44.65;101035.06;4871702;29;20040;-83
2022/07/29 09:26:47;;;;;;;5.80;2.67;;;;;;;21.55;43.92;101025.84;4876055;29;20523;-83
2022/07/29 09:29:18;;;;;;;7.97;2.80;;;;;;;21.68;43.57;101028.75;4892105;29;20124;-84
2022/07/29 09:31:50;;;;;;;6.80;2.53;;;;;;;21.67;43.46;101025.25;4888623;29;20139;-89
2022/07/29 09:34:31;;;;;;;6.78;3.05;;;;;;;21.60;43.55;101021.16;4872198;29;20143;-85
2022/07/29 09:36:57;;;;;;;7.97;2.20;;;;;;;21.49;43.84;101029.63;4891039;29;20492;-82
2022/07/29 09:39:39;;;;;;;2.83;1.85;;;;;;;21.47;44.04;101019.06;4893301;29;20041;-83
2022/07/29 09:42:09;;;;;;;12.32;2.35;;;;;;;21.58;44.03;101015.91;4892464;29;20040;-85
2022/07/29 09:44:45;;;;;;;9.15;3.15;;;;;;;21.73;43.75;101013.41;4879856;29;20136;-82
2022/07/29 09:47:13;;;;;;;8.50;2.00;;;;;;;21.79;43.89;101021.94;4892550;29;20052;-84
2022/07/29 09:50:02;;;;;;;3.40;2.10;;;;;;;21.71;43.55;101015.31;4895655;29;20048;-83
2022/07/29 09:52:31;;;;;;;2.33;1.70;;;;;;;21.61;43.57;101014.88;4877131;29;20064;-85
2022/07/29 09:55:09;;;;;;;7.80;2.28;;;;;;;21.57;44.00;101015.97;4870747;29;20080;-84
2022/07/29 09:57:37;;;;;;;3.85;1.88;;;;;;;21.74;43.72;101018.66;4877371;29;20048;-84
2022/07/29 10:00:11;;;;;;;6.10;2.40;;;;;;;21.99;43.34;101012.09;4873715;29;20298;-86
2022/07/29 10:02:39;;;;;;;;;;;;;;;22.20;42.84;101011.91;4887617;29;20052;-84
2022/07/29 10:05:18;;;;;;;8.13;2.35;;;;;;;22.33;42.42;101014.81;4896650;29;20443;-81
2022/07/29 10:07:54;;;;;;;4.07;2.17;;;;;;;22.42;42.31;101019.69;4900534;29;20073;-85
2022/07/29 10:10:27;;;;;;;4.43;2.22;;;;;;;22.65;42.03;101026.47;4896110;29;20048;-83
2022/07/29 10:13:08;;;;;;;6.75;2.17;;;;;;;23.00;41.48;101023.69;4883445;29;20052;-83
2022/07/29 10:15:43;;;;;;;3.15;2.05;;;;;;;23.41;40.53;101020.53;4894846;29;20108;-84
2022/07/29 10:18:16;;;;;;;4.18;2.15;;;;;;;23.62;39.95;101028.25;4891735;29;20044;-85
2022/07/29 10:20:43;;;;;;;6.53;1.90;;;;;;;23.68;40.06;101027.88;4894551;29;20045;-85
2022/07/29 10:23:10;;;;;;;4.28;2.13;;;;;;;23.67;39.88;101026.16;4892519;29;20100;-83
2022/07/29 10:25:37;;;;;;;6.97;2.00;;;;;;;23.70;39.65;101018.00;4874907;29;20080;-84
2022/07/29 10:28:06;;;;;;;4.88;1.90;;;;;;;23.69;40.13;101020.72;4894020;29;20040;-83
2022/07/29 10:30:34;;;;;;;5.35;2.28;;;;;;;23.50;40.08;101016.44;4893622;29;20040;-84
2022/07/29 10:33:53;;;;;;;4.38;1.88;;;;;;;23.23;40.94;101008.19;4896651;29;20081;-87
2022/07/29 10:36:36;;;;;;;2.00;1.70;;;;;;;23.06;41.11;101004.66;4880716;29;20717;-85
2022/07/29 10:39:34;;;;;;;4.20;2.42;;;;;;;23.15;40.76;101010.47;4894254;29;20043;-83
2022/07/29 10:42:24;;;;;;;3.97;2.03;;;;;;;23.10;41.29;101010.66;4891927;29;20104;-82
2022/07/29 10:44:52;;;;;;;3.75;1.95;;;;;;;23.19;41.27;101001.31;4892222;29;20092;-84
2022/07/29 10:47:27;;;;;;;5.45;1.63;;;;;;;23.20;41.23;101005.72;4895203;29;20076;-83
2022/07/29 10:49:58;;;;;;;3.30;2.70;;;;;;;23.23;41.41;101010.88;4887338;29;20048;-87
2022/07/29 10:52:28;;;;;;;7.32;2.90;;;;;;;23.24;41.42;101001.91;4895892;29;20135;-83
2022/07/29 10:55:00;;;;;;;5.78;2.42;;;;;;;23.28;41.34;101000.78;4897773;29;20044;-89
2022/07/29 10:57:33;;;;;;;4.35;1.83;;;;;;;23.26;41.59;101002.72;4913560;29;20155;-85
2022/07/29 11:00:03;;;;;;;3.90;1.52;;;;;;;23.27;41.36;101005.28;4896168;29;20045;-86
2022/07/29 11:02:33;;;;;;;6.05;2.08;;;;;;;23.23;41.26;101000.19;4898628;29;20055;-83
2022/07/29 11:05:05;;;;;;;5.65;2.40;;;;;;;23.11;41.57;100993.69;4895275;29;20045;-84
2022/07/29 11:07:34;;;;;;;4.75;2.30;;;;;;;22.95;42.32;101002.56;4897959;29;20406;-85
2022/07/29 11:10:13;;;;;;;4.78;2.65;;;;;;;22.72;42.67;100995.84;4901002;29;20045;-88
2022/07/29 11:12:42;;;;;;;2.85;2.17;;;;;;;22.53;43.03;101001.31;4904033;29;20054;-86
2022/07/29 11:15:18;;;;;;;4.70;2.42;;;;;;;22.41;43.29;100993.94;4916101;29;20068;-86
2022/07/29 11:17:56;;;;;;;5.25;1.90;;;;;;;22.26;43.80;100996.47;4893340;29;20085;-83
2022/07/29 11:20:53;;;;;;;4.18;2.10;;;;;;;22.14;44.11;100999.78;4899253;29;20094;-85
2022/07/29 11:23:39;;;;;;;3.95;1.48;;;;;;;22.08;44.39;100997.44;4872972;29;20120;-84
2022/07/29 11:26:12;;;;;;;4.60;1.90;;;;;;;22.06;44.29;100997.50;4891079;29;20065;-83
2022/07/29 11:28:54;;;;;;;6.88;2.30;;;;;;;22.09;44.35;101005.34;4896149;29;20437;-83
2022/07/29 11:31:37;;;;;;;4.93;2.30;;;;;;;22.20;44.70;100999.47;4894389;29;20063;-86
2022/07/29 11:34:24;;;;;;;;;;;;;;;22.30;44.34;100998.00;4891665;29;20044;-91
2022/07/29 11:37:09;;;;;;;4.55;2.10;;;;;;;22.44;44.45;100999.16;4908917;29;19949;-86
2022/07/29 11:39:47;;;;;;;4.10;2.00;;;;;;;22.53;43.89;100998.66;4888815;29;20536;-83
2022/07/29 11:42:26;;;;;;;5.82;1.83;;;;;;;22.50;44.01;100997.94;4879924;29;20083;-85
2022/07/29 11:45:08;;;;;;;4.30;1.92;;;;;;;22.50;43.82;100989.94;4898008;29;20116;-85
2022/07/29 11:47:42;;;;;;;2.57;1.90;;;;;;;22.61;44.37;100998.22;4895311;29;20144;-85
2022/07/29 11:50:13;;;;;;;5.65;2.53;;;;;;;22.70;43.99;100992.41;4886595;29;20057;-84
2022/07/29 11:52:48;;;;;;;4.20;1.80;;;;;;;22.79;44.01;100989.22;4889276;29;20449;-83